Time;durP1;ratioP1;P1;durP2;ratioP2;P2;SDS_P1;SDS_P2;PMS_P1;PMS_P2;Temp;Humidity;BMP_temperature;BMP_pressure;BME280_temperature;BME280_humidity;BME280_pressure;Samples;Min_cycle;Max_cycle;Signal;HPM_P1;HPM_P2
2021/12/04 00:00:08;;;;;;;1.00;0.90;;;;;;;;;;4954739;28;20182;-77
2021/12/04 00:02:34;;;;;;;1.10;1.00;;;;;;;;;;4951036;28;20212;-76
2021/12/04 00:05:01;;;;;;;0.70;0.70;;;;;;;;;;4950682;28;20236;-77
2021/12/04 00:07:28;;;;;;;4.93;2.97;;;;;;;;;;4961172;28;20187;-77
2021/12/04 00:09:58;;;;;;;3.03;2.13;;;;;;;;;;4951666;28;20182;-77
2021/12/04 00:12:23;;;;;;;3.57;2.10;;;;;;;;;;4949700;28;20206;-77
2021/12/04 00:14:49;;;;;;;2.20;1.87;;;;;;;;;;4957587;28;20505;-77
2021/12/04 00:17:14;;;;;;;7.47;2.87;;;;;;;;;;4973786;28;20356;-77
2021/12/04 00:19:40;;;;;;;3.57;2.57;;;;;;;;;;4952396;28;20180;-77
2021/12/04 00:22:05;;;;;;;4.67;2.73;;;;;;;;;;4955393;28;20263;-77
2021/12/04 00:24:30;;;;;;;2.83;2.03;;;;;;;;;;4955645;28;20201;-77
2021/12/04 00:26:56;;;;;;;7.33;3.03;;;;;;;;;;4955300;28;20174;-77
2021/12/04 00:29:22;;;;;;;5.13;2.80;;;;;;;;;;4952693;28;20173;-77
2021/12/04 00:31:54;;;;;;;4.17;2.73;;;;;;;;;;4950977;28;20312;-77
2021/12/04 00:34:21;;;;;;;2.47;2.03;;;;;;;;;;4954354;28;20207;-77
2021/12/04 00:50:09;;;;;;;2.80;2.40;;;;;;;;;;4971817;28;20281;-77
2021/12/04 00:52:35;;;;;;;4.30;2.00;;;;;;;;;;4956403;28;20173;-77
2021/12/04 00:55:01;;;;;;;3.83;2.70;;;;;;;;;;4958029;28;20184;-77
2021/12/04 00:57:26;;;;;;;3.93;2.27;;;;;;;;;;4959864;28;20173;-77
2021/12/04 00:59:51;;;;;;;2.93;2.63;;;;;;;;;;4957842;28;20629;-77
2021/12/04 01:02:20;;;;;;;2.80;2.43;;;;;;;;;;4958330;28;20185;-77
2021/12/04 01:04:45;;;;;;;3.50;2.80;;;;;;;;;;4954668;28;20581;-77
2021/12/04 01:07:10;;;;;;;5.87;2.60;;;;;;;;;;4952627;28;20192;-77
2021/12/04 01:09:36;;;;;;;3.40;2.90;;;;;;;;;;4957481;28;20176;-77
2021/12/04 01:12:02;;;;;;;5.23;3.33;;;;;;;;;;4959019;28;20203;-77
2021/12/04 01:14:28;;;;;;;4.20;3.80;;;;;;;;;;4951377;28;20228;-77
2021/12/04 01:16:53;;;;;;;3.70;3.30;;;;;;;;;;4949201;28;20185;-77
2021/12/04 01:19:19;;;;;;;5.50;3.77;;;;;;;;;;4949455;28;20189;-77
2021/12/04 01:21:45;;;;;;;4.70;3.73;;;;;;;;;;4950449;29;20181;-77
2021/12/04 01:24:10;;;;;;;4.40;4.00;;;;;;;;;;4949160;28;20284;-77
2021/12/04 01:26:36;;;;;;;5.07;4.07;;;;;;;;;;4950573;29;20181;-77
2021/12/04 01:29:01;;;;;;;7.10;4.00;;;;;;;;;;4954501;28;20184;-77
2021/12/04 01:31:26;;;;;;;5.37;4.57;;;;;;;;;;4950485;28;20181;-77
2021/12/04 01:33:52;;;;;;;6.17;4.00;;;;;;;;;;4951183;28;20197;-77
2021/12/04 01:36:18;;;;;;;6.67;4.80;;;;;;;;;;4950979;28;20212;-77
2021/12/04 01:38:43;;;;;;;6.07;4.50;;;;;;;;;;4950889;29;20178;-77
2021/12/04 01:41:08;;;;;;;7.40;4.80;;;;;;;;;;4947920;29;20260;-77
2021/12/04 01:43:33;;;;;;;6.93;4.60;;;;;;;;;;4949871;29;20215;-77
2021/12/04 01:45:59;;;;;;;5.60;4.73;;;;;;;;;;4949380;29;20181;-77
2021/12/04 01:48:24;;;;;;;7.37;4.93;;;;;;;;;;4952262;28;20188;-77
2021/12/04 01:50:52;;;;;;;9.47;5.13;;;;;;;;;;4949657;28;20196;-77
2021/12/04 01:53:17;;;;;;;5.80;4.60;;;;;;;;;;4962884;28;20186;-77
2021/12/04 01:55:42;;;;;;;7.40;5.43;;;;;;;;;;4950473;28;20274;-77
2021/12/04 01:58:08;;;;;;;5.30;4.73;;;;;;;;;;4952267;28;20177;-77
2021/12/04 02:00:38;;;;;;;10.27;5.07;;;;;;;;;;4950265;29;20209;-77
2021/12/04 02:03:04;;;;;;;6.07;5.10;;;;;;;;;;4950009;29;20199;-77
2021/12/04 02:05:30;;;;;;;7.30;5.07;;;;;;;;;;4949385;29;20185;-77
2021/12/04 02:07:55;;;;;;;7.07;5.60;;;;;;;;;;4954385;28;20185;-78
2021/12/04 02:10:20;;;;;;;5.83;4.30;;;;;;;;;;4949999;29;20186;-77
2021/12/04 02:12:47;;;;;;;6.87;4.70;;;;;;;;;;4955602;28;20236;-77
2021/12/04 02:15:13;;;;;;;5.07;4.37;;;;;;;;;;4968718;28;20190;-78
2021/12/04 02:17:39;;;;;;;7.20;4.77;;;;;;;;;;4972265;28;20181;-78
2021/12/04 02:20:11;;;;;;;5.97;4.40;;;;;;;;;;4952567;28;20264;-77
2021/12/04 02:22:36;;;;;;;6.13;4.20;;;;;;;;;;4969158;28;20185;-77
2021/12/04 02:25:02;;;;;;;5.20;4.70;;;;;;;;;;4955959;28;20204;-77
2021/12/04 02:27:27;;;;;;;6.30;5.03;;;;;;;;;;4955403;28;20184;-77
2021/12/04 02:29:52;;;;;;;5.40;4.40;;;;;;;;;;4952430;28;20178;-77
2021/12/04 02:32:21;;;;;;;5.77;4.40;;;;;;;;;;4965223;28;20173;-77
2021/12/04 02:34:47;;;;;;;6.30;4.53;;;;;;;;;;4957725;28;20371;-77
2021/12/04 02:37:12;;;;;;;4.33;3.93;;;;;;;;;;4971459;28;20184;-77
2021/12/04 02:39:42;;;;;;;5.97;4.00;;;;;;;;;;4953207;28;20230;-77
2021/12/04 02:42:18;;;;;;;5.30;3.80;;;;;;;;;;4964648;28;20209;-77
2021/12/04 02:44:45;;;;;;;4.13;3.67;;;;;;;;;;4970542;28;20219;-77
2021/12/04 02:47:10;;;;;;;4.23;3.53;;;;;;;;;;4956208;28;20233;-77
2021/12/04 02:49:36;;;;;;;5.00;3.60;;;;;;;;;;4974023;28;20292;-77
2021/12/04 02:52:02;;;;;;;4.87;3.70;;;;;;;;;;4955860;28;20176;-77
2021/12/04 02:54:28;;;;;;;4.20;3.50;;;;;;;;;;4956971;28;20185;-78
2021/12/04 02:56:53;;;;;;;4.23;3.57;;;;;;;;;;4972107;28;20185;-78
2021/12/04 02:59:19;;;;;;;5.93;3.47;;;;;;;;;;4957614;28;20184;-78
2021/12/04 03:01:44;;;;;;;6.20;3.70;;;;;;;;;;4954356;28;20192;-78
2021/12/04 03:04:10;;;;;;;4.63;3.60;;;;;;;;;;4973805;28;20287;-78
2021/12/04 03:06:39;;;;;;;3.00;2.40;;;;;;;;;;4961738;28;20179;-78
2021/12/04 03:09:04;;;;;;;3.53;2.67;;;;;;;;;;4972879;28;20245;-78
2021/12/04 03:11:30;;;;;;;5.40;3.20;;;;;;;;;;4973688;28;20177;-78
2021/12/04 03:13:55;;;;;;;4.10;3.07;;;;;;;;;;4953408;28;20257;-78
2021/12/04 03:16:21;;;;;;;4.30;3.60;;;;;;;;;;4953709;28;20181;-78
2021/12/04 03:18:46;;;;;;;5.33;3.97;;;;;;;;;;4952641;29;20193;-79
2021/12/04 03:21:11;;;;;;;5.57;3.60;;;;;;;;;;4952436;28;20180;-79
2021/12/04 03:23:51;;;;;;;4.33;3.07;;;;;;;;;;4952902;28;20216;-78
2021/12/04 03:26:16;;;;;;;6.27;3.40;;;;;;;;;;4957080;28;20181;-79
2021/12/04 03:28:41;;;;;;;5.57;3.40;;;;;;;;;;4949430;29;20178;-79
2021/12/04 03:31:14;;;;;;;2.90;2.37;;;;;;;;;;4952017;28;20185;-78
2021/12/04 03:41:51;;;;;;;3.40;2.60;;;;;;;;;;4951799;29;20214;-78
2021/12/04 03:44:16;;;;;;;4.17;2.57;;;;;;;;;;4952238;29;20197;-78
2021/12/04 03:46:44;;;;;;;2.87;2.47;;;;;;;;;;4952603;28;20209;-78
2021/12/04 03:49:09;;;;;;;4.00;2.97;;;;;;;;;;4961605;28;20197;-78
2021/12/04 03:51:36;;;;;;;4.10;2.50;;;;;;;;;;4957075;28;20305;-78
2021/12/04 03:54:02;;;;;;;3.57;2.80;;;;;;;;;;4952859;28;20288;-78
2021/12/04 03:56:28;;;;;;;3.73;2.63;;;;;;;;;;4952607;28;20269;-78
2021/12/04 03:58:54;;;;;;;3.90;3.10;;;;;;;;;;4952796;28;20192;-78
2021/12/04 04:01:19;;;;;;;3.37;2.77;;;;;;;;;;4952554;28;20186;-78
2021/12/04 04:03:44;;;;;;;4.03;3.20;;;;;;;;;;4953049;28;20193;-78
2021/12/04 04:06:10;;;;;;;3.27;2.50;;;;;;;;;;4957322;28;20208;-77
2021/12/04 04:08:35;;;;;;;3.83;2.47;;;;;;;;;;4958330;28;20185;-78
2021/12/04 04:11:00;;;;;;;2.27;1.70;;;;;;;;;;4953509;28;20177;-78
2021/12/04 04:13:25;;;;;;;2.07;1.87;;;;;;;;;;4949572;28;20237;-78
2021/12/04 04:15:51;;;;;;;4.07;1.73;;;;;;;;;;4952528;28;20194;-78
2021/12/04 04:18:16;;;;;;;2.70;1.70;;;;;;;;;;4954829;28;20208;-78
2021/12/04 04:20:41;;;;;;;2.37;1.73;;;;;;;;;;4954129;28;20220;-78
2021/12/04 04:23:06;;;;;;;2.27;1.80;;;;;;;;;;4952697;28;20181;-78
2021/12/04 04:25:32;;;;;;;3.03;1.87;;;;;;;;;;4948031;29;20174;-78
2021/12/04 04:27:57;;;;;;;2.13;1.53;;;;;;;;;;4955279;28;20185;-77
2021/12/04 04:30:22;;;;;;;2.50;1.63;;;;;;;;;;4951103;28;20185;-77
2021/12/04 04:32:49;;;;;;;2.57;1.60;;;;;;;;;;4954209;28;20181;-78
2021/12/04 04:35:16;;;;;;;2.67;1.43;;;;;;;;;;4948561;28;20221;-78
2021/12/04 05:02:40;;;;;;;2.30;1.57;;;;;;;;;;4950230;28;20187;-78
2021/12/04 05:10:38;;;;;;;2.10;1.50;;;;;;;;;;4910988;29;20189;-78
2021/12/04 05:13:06;;;;;;;1.60;1.30;;;;;;;;;;4947878;28;20225;-78
2021/12/04 05:15:39;;;;;;;2.97;1.50;;;;;;;;;;4952684;28;20217;-78
2021/12/04 05:20:53;;;;;;;4.50;1.50;;;;;;;;;;4972375;28;20191;-78
2021/12/04 05:23:19;;;;;;;2.27;1.60;;;;;;;;;;4955003;28;20194;-78
2021/12/04 05:25:44;;;;;;;1.50;1.30;;;;;;;;;;4970138;28;20174;-78
2021/12/04 05:28:10;;;;;;;2.03;1.60;;;;;;;;;;4970650;28;20184;-78
2021/12/04 05:30:36;;;;;;;2.50;1.70;;;;;;;;;;4951995;28;20188;-78
2021/12/04 05:33:02;;;;;;;1.43;1.20;;;;;;;;;;4954935;28;20188;-78
2021/12/04 05:35:27;;;;;;;2.50;1.40;;;;;;;;;;4971199;28;20172;-78
2021/12/04 05:37:52;;;;;;;2.03;1.70;;;;;;;;;;4954131;28;20181;-78
2021/12/04 05:40:18;;;;;;;1.53;1.27;;;;;;;;;;4968249;28;20212;-78
2021/12/04 05:42:44;;;;;;;2.10;1.43;;;;;;;;;;4969600;28;20201;-78
2021/12/04 05:45:23;;;;;;;1.90;1.60;;;;;;;;;;4953892;28;20212;-78
2021/12/04 05:55:30;;;;;;;2.23;1.60;;;;;;;;;;4969890;28;20212;-78
2021/12/04 05:57:56;;;;;;;2.60;1.97;;;;;;;;;;4952521;28;20185;-78
2021/12/04 06:00:23;;;;;;;1.93;1.80;;;;;;;;;;4971407;28;20184;-78
2021/12/04 06:02:48;;;;;;;1.40;1.30;;;;;;;;;;4953161;28;20184;-78
2021/12/04 06:05:14;;;;;;;3.40;2.40;;;;;;;;;;4953847;28;20204;-79
2021/12/04 06:07:39;;;;;;;1.83;1.67;;;;;;;;;;4959866;28;20176;-78
2021/12/04 06:10:05;;;;;;;1.60;1.50;;;;;;;;;;4971077;28;20242;-78
2021/12/04 06:12:31;;;;;;;1.40;1.30;;;;;;;;;;4969436;28;20177;-78
2021/12/04 06:14:56;;;;;;;1.87;1.20;;;;;;;;;;4955303;28;20188;-78
2021/12/04 06:17:23;;;;;;;1.03;0.93;;;;;;;;;;4956845;28;20184;-78
2021/12/04 06:22:40;;;;;;;0.83;0.83;;;;;;;;;;4974006;28;20182;-77
2021/12/04 06:25:14;;;;;;;1.10;1.00;;;;;;;;;;4974675;28;20212;-78
2021/12/04 06:27:39;;;;;;;1.30;1.20;;;;;;;;;;4957107;28;20172;-78
2021/12/04 06:30:06;;;;;;;2.07;1.57;;;;;;;;;;4961842;28;20195;-77
2021/12/04 06:32:34;;;;;;;1.10;1.00;;;;;;;;;;4957130;28;20176;-78
2021/12/04 06:35:00;;;;;;;2.17;1.30;;;;;;;;;;4954335;28;20195;-78
2021/12/04 06:37:25;;;;;;;2.23;1.13;;;;;;;;;;4956922;28;20172;-78
2021/12/04 06:39:50;;;;;;;3.37;1.57;;;;;;;;;;4957831;28;20191;-77
2021/12/04 06:42:16;;;;;;;1.63;1.40;;;;;;;;;;4955803;28;20208;-78
2021/12/04 06:44:42;;;;;;;2.77;2.57;;;;;;;;;;4972152;28;20212;-78
2021/12/04 06:47:07;;;;;;;2.80;2.60;;;;;;;;;;4955630;28;20180;-78
2021/12/04 06:49:39;;;;;;;2.10;1.80;;;;;;;;;;4960827;28;20172;-77
2021/12/04 06:52:08;;;;;;;3.50;2.77;;;;;;;;;;4954062;28;20169;-78
2021/12/04 06:54:37;;;;;;;4.17;2.40;;;;;;;;;;4955267;28;20187;-78
2021/12/04 06:57:05;;;;;;;3.53;2.10;;;;;;;;;;4958709;28;20180;-77
2021/12/04 06:59:31;;;;;;;1.23;1.07;;;;;;;;;;4974224;28;20211;-77
2021/12/04 07:01:57;;;;;;;1.73;1.40;;;;;;;;;;4961501;28;20212;-77
2021/12/04 07:04:28;;;;;;;2.00;1.33;;;;;;;;;;4958393;28;20264;-77
2021/12/04 07:06:53;;;;;;;1.50;1.40;;;;;;;;;;4960994;28;20187;-78
2021/12/04 07:09:19;;;;;;;1.90;1.70;;;;;;;;;;4978928;28;20173;-78
2021/12/04 07:11:44;;;;;;;3.43;2.57;;;;;;;;;;4956879;28;20192;-77
2021/12/04 07:14:09;;;;;;;1.77;1.67;;;;;;;;;;4947572;28;20232;-77
2021/12/04 07:16:35;;;;;;;2.80;1.83;;;;;;;;;;4953143;28;20272;-77
2021/12/04 07:19:00;;;;;;;2.90;2.60;;;;;;;;;;4955843;28;20196;-77
2021/12/04 07:21:25;;;;;;;2.23;2.00;;;;;;;;;;4952739;28;20177;-78
2021/12/04 07:23:51;;;;;;;1.70;1.60;;;;;;;;;;4951613;28;20213;-77
2021/12/04 07:26:17;;;;;;;1.40;1.30;;;;;;;;;;4954967;28;20177;-77
2021/12/04 07:28:42;;;;;;;1.30;1.20;;;;;;;;;;4954540;28;20181;-77
2021/12/04 07:31:08;;;;;;;1.83;1.20;;;;;;;;;;4961471;28;20184;-77
2021/12/04 07:33:33;;;;;;;1.83;1.10;;;;;;;;;;4955499;28;20181;-77
2021/12/04 07:35:59;;;;;;;1.63;1.27;;;;;;;;;;4955545;28;20188;-77
2021/12/04 07:38:24;;;;;;;1.77;1.33;;;;;;;;;;4952298;29;20190;-77
2021/12/04 07:40:49;;;;;;;1.83;1.63;;;;;;;;;;4959867;28;20241;-77
2021/12/04 07:43:15;;;;;;;2.13;1.83;;;;;;;;;;4953433;29;20245;-77
2021/12/04 07:45:40;;;;;;;1.43;1.23;;;;;;;;;;4954341;28;20220;-76
2021/12/04 07:48:06;;;;;;;1.60;1.00;;;;;;;;;;4958166;28;20184;-77
2021/12/04 07:50:32;;;;;;;1.87;1.30;;;;;;;;;;4958961;28;20201;-77
2021/12/04 07:52:58;;;;;;;2.40;1.60;;;;;;;;;;4954517;28;20205;-76
2021/12/04 07:55:23;;;;;;;1.57;1.23;;;;;;;;;;4951398;28;20188;-76
2021/12/04 07:57:48;;;;;;;1.30;1.20;;;;;;;;;;4950832;29;20268;-76
2021/12/04 08:00:15;;;;;;;2.63;1.30;;;;;;;;;;4955798;28;20223;-76
2021/12/04 08:02:41;;;;;;;1.03;1.00;;;;;;;;;;4947415;28;20189;-76
2021/12/04 08:05:07;;;;;;;3.70;1.37;;;;;;;;;;4957383;28;20220;-77
2021/12/04 08:07:33;;;;;;;2.37;1.10;;;;;;;;;;4960744;28;20177;-77
2021/12/04 08:09:58;;;;;;;3.83;2.57;;;;;;;;;;4947024;28;20178;-77
2021/12/04 08:12:23;;;;;;;5.47;3.30;;;;;;;;;;4953465;28;20184;-77
2021/12/04 08:14:49;;;;;;;1.67;1.57;;;;;;;;;;4958804;28;20185;-77
2021/12/04 08:17:14;;;;;;;1.10;1.00;;;;;;;;;;4973623;28;20187;-77
2021/12/04 08:19:40;;;;;;;3.27;2.97;;;;;;;;;;4963131;28;20192;-76
2021/12/04 08:22:05;;;;;;;2.60;2.40;;;;;;;;;;4955446;28;20185;-76
2021/12/04 08:24:30;;;;;;;2.67;2.33;;;;;;;;;;4973184;28;20200;-76
2021/12/04 08:26:55;;;;;;;7.50;6.57;;;;;;;;;;4954917;28;20240;-77
2021/12/04 08:29:21;;;;;;;2.90;2.60;;;;;;;;;;4952515;28;20185;-76
2021/12/04 08:31:47;;;;;;;2.13;1.90;;;;;;;;;;4975690;28;20176;-76
2021/12/04 08:34:12;;;;;;;5.57;4.23;;;;;;;;;;4972243;28;20250;-77
2021/12/04 08:36:38;;;;;;;2.80;2.50;;;;;;;;;;4955165;28;20198;-76
2021/12/04 08:39:04;;;;;;;3.13;2.83;;;;;;;;;;4970465;28;20176;-76
2021/12/04 08:41:29;;;;;;;1.43;1.33;;;;;;;;;;4958143;28;20200;-76
2021/12/04 08:43:55;;;;;;;3.30;2.97;;;;;;;;;;4967331;28;20206;-76
2021/12/04 08:46:21;;;;;;;2.77;2.40;;;;;;;;;;4970168;28;20436;-76
2021/12/04 08:48:47;;;;;;;1.80;1.70;;;;;;;;;;4980134;28;20260;-76
2021/12/04 08:51:12;;;;;;;1.90;1.70;;;;;;;;;;4955338;28;20202;-76
2021/12/04 08:53:38;;;;;;;1.70;1.60;;;;;;;;;;4974933;28;20260;-76
2021/12/04 08:56:03;;;;;;;6.27;4.00;;;;;;;;;;4965371;28;20242;-76
2021/12/04 08:58:28;;;;;;;1.97;1.87;;;;;;;;;;4971602;28;20267;-76
2021/12/04 09:00:56;;;;;;;2.13;1.93;;;;;;;;;;4959516;28;20192;-76
2021/12/04 09:03:23;;;;;;;2.70;1.50;;;;;;;;;;4953073;28;20224;-76
2021/12/04 09:05:50;;;;;;;2.10;1.90;;;;;;;;;;4956776;28;20192;-76
2021/12/04 09:08:15;;;;;;;2.37;1.83;;;;;;;;;;4967699;28;20262;-76
2021/12/04 09:10:42;;;;;;;3.90;2.57;;;;;;;;;;4969955;28;20276;-76
2021/12/04 09:13:08;;;;;;;1.47;1.17;;;;;;;;;;4951103;28;20236;-77
2021/12/04 09:15:35;;;;;;;1.03;1.03;;;;;;;;;;4951826;28;20184;-76
2021/12/04 09:18:00;;;;;;;1.07;1.00;;;;;;;;;;4943804;29;20205;-76
2021/12/04 09:20:28;;;;;;;1.43;1.33;;;;;;;;;;4951086;28;20265;-76
2021/12/04 09:22:53;;;;;;;1.40;1.30;;;;;;;;;;4951033;28;20192;-76
2021/12/04 09:25:23;;;;;;;1.33;1.23;;;;;;;;;;4953972;28;20209;-77
2021/12/04 10:02:16;;;;;;;1.73;1.60;;;;;;;;;;4951144;28;20421;-76
2021/12/04 10:16:57;;;;;;;1.70;1.60;;;;;;;;;;4971888;28;20244;-76
2021/12/04 10:24:08;;;;;;;2.40;2.20;;;;;;;;;;4969492;28;20298;-77
2021/12/04 10:34:55;;;;;;;4.73;4.33;;;;;;;;;;4969993;28;20267;-76
2021/12/04 10:37:28;;;;;;;6.30;5.37;;;;;;;;;;4957150;28;20271;-76
2021/12/04 10:39:56;;;;;;;2.17;2.03;;;;;;;;;;4970391;28;20199;-76
2021/12/04 10:42:34;;;;;;;4.10;3.70;;;;;;;;;;4955264;28;20201;-76
2021/12/04 10:45:00;;;;;;;4.47;3.67;;;;;;;;;;4965207;28;20205;-76
2021/12/04 10:47:27;;;;;;;7.80;5.90;;;;;;;;;;4959349;28;20177;-76
2021/12/04 10:50:19;;;;;;;12.73;10.23;;;;;;;;;;4956919;28;20276;-76
2021/12/04 10:52:52;;;;;;;10.10;7.63;;;;;;;;;;4954165;28;20181;-76
2021/12/04 10:55:29;;;;;;;16.80;11.20;;;;;;;;;;4959808;28;20185;-76
2021/12/04 10:58:26;;;;;;;5.63;3.27;;;;;;;;;;4956714;28;20187;-76
2021/12/04 11:01:06;;;;;;;2.47;2.27;;;;;;;;;;4954905;28;20248;-76
2021/12/04 11:22:18;;;;;;;2.63;2.43;;;;;;;;;;4970938;28;20191;-76
2021/12/04 11:25:10;;;;;;;4.10;3.80;;;;;;;;;;4958665;28;20214;-76
2021/12/04 11:27:50;;;;;;;4.97;4.57;;;;;;;;;;4974027;28;20207;-76
2021/12/04 11:43:07;;;;;;;1.57;1.47;;;;;;;;;;4972227;28;20209;-76
2021/12/04 11:45:44;;;;;;;1.60;1.50;;;;;;;;;;4974172;28;20303;-76
2021/12/04 11:48:10;;;;;;;2.80;2.50;;;;;;;;;;4956016;28;20182;-76
2021/12/04 11:50:39;;;;;;;1.60;1.50;;;;;;;;;;4957227;28;20177;-76
2021/12/04 11:53:06;;;;;;;5.17;2.60;;;;;;;;;;4958208;28;20256;-76
2021/12/04 11:55:33;;;;;;;1.10;1.10;;;;;;;;;;4957131;28;20217;-76
2021/12/04 11:57:59;;;;;;;2.57;2.37;;;;;;;;;;4975175;28;20192;-76
2021/12/04 12:00:29;;;;;;;2.17;2.00;;;;;;;;;;4973665;28;20177;-76
2021/12/04 12:03:12;;;;;;;2.60;2.40;;;;;;;;;;4976866;28;20285;-75
2021/12/04 12:05:44;;;;;;;2.73;2.03;;;;;;;;;;4971661;28;20232;-76
2021/12/04 12:08:19;;;;;;;1.13;1.03;;;;;;;;;;4954254;28;20178;-76
2021/12/04 12:10:48;;;;;;;2.00;1.90;;;;;;;;;;4957639;28;20177;-76
2021/12/04 12:13:22;;;;;;;3.77;1.97;;;;;;;;;;4952279;28;20254;-76
2021/12/04 12:15:56;;;;;;;2.00;1.80;;;;;;;;;;4950712;28;20181;-76
2021/12/04 12:18:22;;;;;;;2.30;2.10;;;;;;;;;;4952093;29;20214;-76
2021/12/04 12:21:01;;;;;;;1.40;1.30;;;;;;;;;;4950301;29;20328;-76
2021/12/04 12:23:30;;;;;;;1.40;1.30;;;;;;;;;;4952274;29;20212;-76
2021/12/04 12:26:10;;;;;;;1.10;1.03;;;;;;;;;;4952968;29;20186;-76
2021/12/04 12:37:18;;;;;;;1.90;1.60;;;;;;;;;;4899929;29;20206;-76
2021/12/04 12:40:00;;;;;;;2.40;2.20;;;;;;;;;;4898508;29;20189;-76
2021/12/04 12:42:30;;;;;;;2.10;1.47;;;;;;;;;;4906994;29;20219;-76
2021/12/04 12:45:14;;;;;;;3.47;3.00;;;;;;;;;;4890300;29;20226;-76
2021/12/04 12:47:48;;;;;;;3.13;2.77;;;;;;;;;;4907153;29;20220;-76
2021/12/04 12:50:24;;;;;;;1.80;1.70;;;;;;;;;;4888404;29;20186;-76
2021/12/04 12:52:58;;;;;;;4.90;2.40;;;;;;;;;;4911559;29;20214;-76
2021/12/04 12:55:23;;;;;;;3.23;2.93;;;;;;;;;;4895696;29;20237;-76
2021/12/04 12:57:49;;;;;;;2.57;2.30;;;;;;;;;;4901233;29;20356;-76
2021/12/04 13:13:55;;;;;;;1.50;1.40;;;;;;;;;;4962044;28;20239;-76
2021/12/04 13:16:22;;;;;;;2.90;2.60;;;;;;;;;;4955163;28;20176;-76
2021/12/04 13:18:53;;;;;;;1.97;1.70;;;;;;;;;;4969164;28;20181;-76
2021/12/04 13:21:19;;;;;;;1.30;1.20;;;;;;;;;;4971896;28;20179;-76
2021/12/04 13:23:48;;;;;;;11.80;8.67;;;;;;;;;;4958794;28;20192;-77
2021/12/04 13:26:14;;;;;;;8.87;7.40;;;;;;;;;;4955957;28;20186;-76
2021/12/04 13:28:41;;;;;;;3.80;3.43;;;;;;;;;;4977472;28;20196;-76
2021/12/04 13:31:06;;;;;;;16.50;14.07;;;;;;;;;;4977388;28;20186;-76
2021/12/04 13:33:33;;;;;;;3.60;3.27;;;;;;;;;;4956277;28;20191;-76
2021/12/04 13:35:58;;;;;;;8.93;6.87;;;;;;;;;;4973372;28;20188;-76
2021/12/04 13:38:27;;;;;;;2.50;2.30;;;;;;;;;;4956665;28;20236;-76
2021/12/04 13:40:54;;;;;;;4.73;4.33;;;;;;;;;;4957693;28;20225;-76
2021/12/04 13:43:20;;;;;;;1.20;1.00;;;;;;;;;;4958065;28;20231;-76
2021/12/04 13:45:46;;;;;;;1.57;1.47;;;;;;;;;;4970861;28;20204;-76
2021/12/04 13:48:11;;;;;;;0.90;0.90;;;;;;;;;;4971064;28;20180;-76
2021/12/04 13:53:26;;;;;;;0.67;0.67;;;;;;;;;;4980931;28;20271;-76
2021/12/04 13:55:59;;;;;;;1.30;1.20;;;;;;;;;;4952674;28;20276;-76
2021/12/04 13:58:25;;;;;;;1.20;1.00;;;;;;;;;;4953383;28;20257;-76
2021/12/04 14:00:51;;;;;;;1.70;1.27;;;;;;;;;;4959887;28;20251;-76
2021/12/04 14:03:21;;;;;;;0.67;0.50;;;;;;;;;;4958494;28;20264;-77
2021/12/04 14:05:46;;;;;;;1.53;1.27;;;;;;;;;;4959272;28;20206;-76
2021/12/04 14:08:11;;;;;;;1.00;1.00;;;;;;;;;;4958493;28;20179;-76
2021/12/04 14:10:40;;;;;;;1.67;1.10;;;;;;;;;;4952799;28;20237;-76
2021/12/04 14:13:06;;;;;;;1.40;1.30;;;;;;;;;;4949228;28;20252;-76
2021/12/04 14:15:32;;;;;;;0.73;0.47;;;;;;;;;;4950580;28;20218;-76
2021/12/04 14:18:02;;;;;;;1.97;1.80;;;;;;;;;;4951598;28;20185;-76
2021/12/04 14:20:28;;;;;;;1.30;1.10;;;;;;;;;;4952566;28;20185;-76
2021/12/04 14:22:54;;;;;;;5.70;4.67;;;;;;;;;;4953946;28;20246;-76
2021/12/04 14:25:21;;;;;;;5.10;4.30;;;;;;;;;;4948415;28;20225;-76
2021/12/04 14:27:46;;;;;;;2.50;2.23;;;;;;;;;;4950980;28;20178;-76
2021/12/04 14:30:13;;;;;;;7.60;5.40;;;;;;;;;;4951193;28;20229;-76
2021/12/04 14:32:45;;;;;;;5.20;4.33;;;;;;;;;;4949595;28;20185;-76
2021/12/04 14:35:14;;;;;;;2.30;2.10;;;;;;;;;;4951788;29;20184;-77
2021/12/04 14:37:41;;;;;;;2.40;2.13;;;;;;;;;;4958901;28;20289;-76
2021/12/04 14:40:07;;;;;;;1.83;1.50;;;;;;;;;;4953503;28;20191;-76
2021/12/04 14:42:33;;;;;;;2.83;2.63;;;;;;;;;;4954568;28;20304;-76
2021/12/04 14:45:00;;;;;;;2.40;1.60;;;;;;;;;;4952580;28;20284;-76
2021/12/04 14:47:30;;;;;;;1.27;1.20;;;;;;;;;;4955430;28;20191;-76
2021/12/04 14:50:00;;;;;;;2.80;2.40;;;;;;;;;;4953851;28;20203;-76
2021/12/04 14:52:26;;;;;;;1.53;1.43;;;;;;;;;;4954625;28;20268;-76
2021/12/04 14:54:52;;;;;;;1.97;1.00;;;;;;;;;;4953089;29;20209;-76
2021/12/04 14:57:19;;;;;;;1.80;1.70;;;;;;;;;;4953516;28;20178;-76
2021/12/04 14:59:44;;;;;;;1.47;1.37;;;;;;;;;;4954502;28;20179;-76
2021/12/04 15:02:19;;;;;;;1.43;1.33;;;;;;;;;;4955228;28;20189;-76
2021/12/04 15:04:44;;;;;;;3.73;2.53;;;;;;;;;;4953090;28;20215;-76
2021/12/04 15:07:20;;;;;;;3.17;2.70;;;;;;;;;;4955998;28;20174;-76
2021/12/04 15:09:45;;;;;;;2.20;2.00;;;;;;;;;;4954089;28;20177;-76
2021/12/04 15:12:22;;;;;;;2.43;2.23;;;;;;;;;;4953871;28;20186;-76
2021/12/04 15:14:48;;;;;;;1.83;1.73;;;;;;;;;;4967697;28;20206;-76
2021/12/04 15:17:14;;;;;;;1.07;0.97;;;;;;;;;;4949449;28;20224;-76
2021/12/04 15:19:41;;;;;;;2.67;1.40;;;;;;;;;;4953918;28;20199;-76
2021/12/04 15:22:13;;;;;;;1.70;1.33;;;;;;;;;;4954496;28;20216;-76
2021/12/04 15:24:39;;;;;;;1.90;1.70;;;;;;;;;;4953179;28;20304;-76
2021/12/04 15:27:06;;;;;;;1.80;1.40;;;;;;;;;;4953209;29;20279;-76
2021/12/04 15:29:33;;;;;;;2.37;1.90;;;;;;;;;;4967003;28;20222;-76
2021/12/04 15:32:00;;;;;;;1.33;1.23;;;;;;;;;;4954866;28;20216;-76
2021/12/04 15:34:53;;;;;;;2.40;1.50;;;;;;;;;;4950696;28;20182;-76
2021/12/04 15:37:26;;;;;;;1.60;1.50;;;;;;;;;;4963065;28;20248;-76
2021/12/04 15:39:51;;;;;;;0.93;0.93;;;;;;;;;;4949597;28;20197;-76
2021/12/04 15:42:29;;;;;;;1.40;1.30;;;;;;;;;;4952526;28;20216;-76
2021/12/04 15:45:26;;;;;;;1.20;1.10;;;;;;;;;;4952604;28;20224;-76
2021/12/04 15:51:01;;;;;;;1.40;1.30;;;;;;;;;;4954230;28;20201;-76
2021/12/04 15:53:26;;;;;;;3.50;3.20;;;;;;;;;;4952739;28;20209;-76
2021/12/04 15:55:54;;;;;;;3.43;2.70;;;;;;;;;;4953087;28;20190;-76
2021/12/04 15:58:23;;;;;;;2.20;2.00;;;;;;;;;;4956632;28;20224;-76
2021/12/04 16:01:02;;;;;;;6.60;5.67;;;;;;;;;;4953190;28;20190;-76
2021/12/04 16:03:27;;;;;;;1.83;1.73;;;;;;;;;;4953897;28;20181;-76
2021/12/04 16:05:57;;;;;;;1.03;1.03;;;;;;;;;;4959351;28;20302;-76
2021/12/04 16:08:24;;;;;;;4.27;3.13;;;;;;;;;;4956350;28;20201;-76
2021/12/04 16:10:51;;;;;;;11.90;7.97;;;;;;;;;;4953542;28;20196;-76
2021/12/04 16:13:27;;;;;;;3.30;2.80;;;;;;;;;;4951830;29;20257;-76
2021/12/04 16:15:54;;;;;;;8.90;6.57;;;;;;;;;;4954733;28;20189;-76
2021/12/04 16:18:19;;;;;;;1.70;1.60;;;;;;;;;;4953135;28;20192;-76
2021/12/04 16:20:45;;;;;;;8.60;5.90;;;;;;;;;;4952410;29;20189;-76
2021/12/04 16:23:13;;;;;;;1.80;1.70;;;;;;;;;;4953311;28;20211;-76
2021/12/04 16:25:39;;;;;;;12.03;7.00;;;;;;;;;;4954623;28;20213;-76
2021/12/04 16:28:14;;;;;;;1.57;1.47;;;;;;;;;;4950119;28;20182;-76
2021/12/04 16:30:52;;;;;;;9.87;7.03;;;;;;;;;;4951245;28;20188;-76
2021/12/04 16:38:30;;;;;;;2.87;2.63;;;;;;;;;;4953689;28;20196;-76
2021/12/04 16:40:56;;;;;;;6.10;5.33;;;;;;;;;;4950675;28;20202;-76
2021/12/04 16:43:31;;;;;;;7.67;7.00;;;;;;;;;;4950969;29;20255;-76
2021/12/04 16:45:57;;;;;;;5.13;4.73;;;;;;;;;;4952548;28;20220;-75
2021/12/04 16:48:27;;;;;;;1.23;1.13;;;;;;;;;;4954461;28;20197;-76
2021/12/04 16:58:44;;;;;;;2.40;2.20;;;;;;;;;;4957184;28;20189;-76
2021/12/04 17:01:10;;;;;;;5.80;5.20;;;;;;;;;;4954679;28;20194;-76
2021/12/04 17:03:36;;;;;;;2.97;2.40;;;;;;;;;;4950726;28;20272;-76
2021/12/04 17:06:01;;;;;;;3.40;3.10;;;;;;;;;;4946777;28;20213;-76
2021/12/04 17:08:26;;;;;;;2.67;2.37;;;;;;;;;;4952365;28;20190;-76
2021/12/04 17:10:52;;;;;;;2.57;2.37;;;;;;;;;;4950918;29;20347;-76
2021/12/04 17:13:17;;;;;;;2.00;1.90;;;;;;;;;;4951229;29;20239;-75
2021/12/04 17:15:46;;;;;;;2.30;2.10;;;;;;;;;;4949314;28;20197;-76
2021/12/04 17:18:16;;;;;;;2.20;2.00;;;;;;;;;;4952587;28;20182;-76
2021/12/04 17:20:41;;;;;;;2.87;2.60;;;;;;;;;;4953167;28;20177;-76
2021/12/04 17:23:07;;;;;;;3.73;2.87;;;;;;;;;;4955198;28;20237;-76
2021/12/04 17:25:33;;;;;;;5.30;4.33;;;;;;;;;;4951011;29;20308;-76
2021/12/04 17:27:59;;;;;;;4.23;2.40;;;;;;;;;;4950839;29;20173;-76
2021/12/04 17:30:25;;;;;;;3.13;2.07;;;;;;;;;;4950252;28;20240;-76
2021/12/04 17:32:50;;;;;;;1.57;1.47;;;;;;;;;;4950790;28;20182;-76
2021/12/04 17:35:17;;;;;;;5.33;3.53;;;;;;;;;;4956434;28;20183;-76
2021/12/04 17:37:42;;;;;;;2.60;2.40;;;;;;;;;;4953639;28;20210;-76
2021/12/04 17:40:08;;;;;;;1.83;1.40;;;;;;;;;;4949699;28;20179;-76
2021/12/04 17:42:37;;;;;;;1.57;1.47;;;;;;;;;;4952223;28;20206;-76
2021/12/04 17:45:03;;;;;;;2.10;1.13;;;;;;;;;;4945703;29;20201;-76
2021/12/04 17:47:31;;;;;;;1.50;1.40;;;;;;;;;;4947420;28;20185;-76
2021/12/04 17:49:56;;;;;;;1.20;1.10;;;;;;;;;;4948066;29;20177;-77
2021/12/04 17:52:21;;;;;;;1.67;1.57;;;;;;;;;;4953922;28;20228;-76
2021/12/04 17:54:47;;;;;;;1.10;1.10;;;;;;;;;;4961201;28;20628;-76
2021/12/04 17:57:12;;;;;;;1.03;1.03;;;;;;;;;;4951936;28;20217;-76
2021/12/04 17:59:37;;;;;;;1.10;1.10;;;;;;;;;;4950736;28;20181;-76
2021/12/04 18:02:13;;;;;;;1.10;1.00;;;;;;;;;;4949519;29;20189;-76